sensor_id;sensor_type;location;lat;lon;timestamp;pressure;altitude;pressure_sealevel;temperature;humidity
47430;BME280;33181;49.246;7.372;2023-06-05T00:00:46;98998.25;;;15.52;55.63
47430;BME280;33181;49.246;7.372;2023-06-05T00:03:12;98994.22;;;15.48;55.62
47430;BME280;33181;49.246;7.372;2023-06-05T00:05:38;98992.31;;;15.41;56.31
47430;BME280;33181;49.246;7.372;2023-06-05T00:08:04;98994.44;;;15.37;56.34
47430;BME280;33181;49.246;7.372;2023-06-05T00:10:31;98991.66;;;15.39;56.54
47430;BME280;33181;49.246;7.372;2023-06-05T00:13:04;98990.13;;;15.36;56.48
47430;BME280;33181;49.246;7.372;2023-06-05T00:15:31;98991.84;;;15.27;57.24
47430;BME280;33181;49.246;7.372;2023-06-05T00:17:59;98982.53;;;15.23;57.37
47430;BME280;33181;49.246;7.372;2023-06-05T00:20:25;98981.69;;;15.23;57.29
47430;BME280;33181;49.246;7.372;2023-06-05T00:22:51;98988.25;;;15.19;57.27
47430;BME280;33181;49.246;7.372;2023-06-05T00:25:17;98980.78;;;15.14;57.42
47430;BME280;33181;49.246;7.372;2023-06-05T00:27:43;98985.22;;;15.14;57.67
47430;BME280;33181;49.246;7.372;2023-06-05T00:30:11;98985.06;;;15.15;57.59
47430;BME280;33181;49.246;7.372;2023-06-05T00:32:37;98980.38;;;15.09;57.78
47430;BME280;33181;49.246;7.372;2023-06-05T00:35:03;98973.72;;;15.05;57.82
47430;BME280;33181;49.246;7.372;2023-06-05T00:37:29;98979.59;;;14.99;57.89
47430;BME280;33181;49.246;7.372;2023-06-05T00:39:56;98982.81;;;14.93;58.02
47430;BME280;33181;49.246;7.372;2023-06-05T00:42:22;98985.50;;;14.83;58.47
47430;BME280;33181;49.246;7.372;2023-06-05T00:44:48;98981.47;;;14.79;58.96
47430;BME280;33181;49.246;7.372;2023-06-05T00:47:14;98979.66;;;14.79;58.84
47430;BME280;33181;49.246;7.372;2023-06-05T00:49:40;98978.31;;;14.75;59.09
47430;BME280;33181;49.246;7.372;2023-06-05T00:55:47;98982.06;;;14.73;58.74
47430;BME280;33181;49.246;7.372;2023-06-05T00:58:14;98982.88;;;14.73;58.78
47430;BME280;33181;49.246;7.372;2023-06-05T01:00:41;98975.78;;;14.74;58.65
47430;BME280;33181;49.246;7.372;2023-06-05T01:03:07;98978.31;;;14.75;58.45
47430;BME280;33181;49.246;7.372;2023-06-05T01:05:34;98974.66;;;14.76;58.55
47430;BME280;33181;49.246;7.372;2023-06-05T01:08:03;98969.97;;;14.70;58.46
47430;BME280;33181;49.246;7.372;2023-06-05T01:14:20;98970.13;;;14.59;59.33
47430;BME280;33181;49.246;7.372;2023-06-05T01:16:54;98967.63;;;14.48;59.33
47430;BME280;33181;49.246;7.372;2023-06-05T01:19:25;98966.50;;;14.41;59.51
47430;BME280;33181;49.246;7.372;2023-06-05T01:25:39;98970.03;;;14.31;60.25
47430;BME280;33181;49.246;7.372;2023-06-05T01:28:25;98963.91;;;14.31;60.18
47430;BME280;33181;49.246;7.372;2023-06-05T01:34:36;98965.72;;;14.30;60.03
47430;BME280;33181;49.246;7.372;2023-06-05T01:37:04;98955.88;;;14.23;60.44
47430;BME280;33181;49.246;7.372;2023-06-05T01:39:34;98962.53;;;14.27;60.09
47430;BME280;33181;49.246;7.372;2023-06-05T01:42:01;98959.91;;;14.17;60.43
47430;BME280;33181;49.246;7.372;2023-06-05T01:44:28;98956.56;;;14.15;60.23
47430;BME280;33181;49.246;7.372;2023-06-05T01:46:55;98954.06;;;14.13;60.31
47430;BME280;33181;49.246;7.372;2023-06-05T01:49:21;98954.91;;;14.14;60.34
47430;BME280;33181;49.246;7.372;2023-06-05T01:51:48;98948.78;;;14.13;60.23
47430;BME280;33181;49.246;7.372;2023-06-05T01:54:14;98951.72;;;14.10;60.19
47430;BME280;33181;49.246;7.372;2023-06-05T01:56:41;98951.72;;;14.10;60.40
47430;BME280;33181;49.246;7.372;2023-06-05T02:02:50;98947.69;;;13.97;60.59
47430;BME280;33181;49.246;7.372;2023-06-05T02:05:17;98943.38;;;13.96;60.78
47430;BME280;33181;49.246;7.372;2023-06-05T02:07:49;98953.94;;;13.96;60.90
47430;BME280;33181;49.246;7.372;2023-06-05T02:10:19;98937.53;;;13.92;61.38
47430;BME280;33181;49.246;7.372;2023-06-05T02:12:46;98953.13;;;13.85;61.54
47430;BME280;33181;49.246;7.372;2023-06-05T02:15:12;98949.66;;;13.75;61.98
47430;BME280;33181;49.246;7.372;2023-06-05T02:17:41;98954.78;;;13.77;61.95
47430;BME280;33181;49.246;7.372;2023-06-05T02:20:11;98953.66;;;13.79;61.75
47430;BME280;33181;49.246;7.372;2023-06-05T02:22:39;98957.97;;;13.80;61.67
47430;BME280;33181;49.246;7.372;2023-06-05T02:25:09;98947.69;;;13.77;61.57
47430;BME280;33181;49.246;7.372;2023-06-05T02:27:37;98948.66;;;13.76;61.80
47430;BME280;33181;49.246;7.372;2023-06-05T02:30:03;98947.97;;;13.74;61.51
47430;BME280;33181;49.246;7.372;2023-06-05T02:32:29;98951.75;;;13.72;61.67
47430;BME280;33181;49.246;7.372;2023-06-05T02:34:57;98946.47;;;13.72;61.54
47430;BME280;33181;49.246;7.372;2023-06-05T02:37:24;98950.06;;;13.71;61.64
47430;BME280;33181;49.246;7.372;2023-06-05T02:39:52;98948.50;;;13.68;61.78
47430;BME280;33181;49.246;7.372;2023-06-05T02:42:18;98952.28;;;13.65;61.83
47430;BME280;33181;49.246;7.372;2023-06-05T02:44:46;98950.75;;;13.63;61.99
47430;BME280;33181;49.246;7.372;2023-06-05T02:47:12;98941.84;;;13.54;61.92
47430;BME280;33181;49.246;7.372;2023-06-05T02:49:38;98945.88;;;13.49;62.00
47430;BME280;33181;49.246;7.372;2023-06-05T02:52:05;98948.50;;;13.49;62.20
47430;BME280;33181;49.246;7.372;2023-06-05T02:54:32;98944.63;;;13.43;62.62
47430;BME280;33181;49.246;7.372;2023-06-05T02:56:58;98941.69;;;13.36;62.33
47430;BME280;33181;49.246;7.372;2023-06-05T02:59:26;98944.59;;;13.33;62.43
47430;BME280;33181;49.246;7.372;2023-06-05T03:01:53;98946.00;;;13.28;62.71
47430;BME280;33181;49.246;7.372;2023-06-05T03:04:20;98939.41;;;13.22;62.71
47430;BME280;33181;49.246;7.372;2023-06-05T03:06:50;98946.50;;;13.21;62.81
47430;BME280;33181;49.246;7.372;2023-06-05T03:09:19;98951.91;;;13.20;63.00
47430;BME280;33181;49.246;7.372;2023-06-05T03:11:45;98951.22;;;13.18;62.88
47430;BME280;33181;49.246;7.372;2023-06-05T03:14:11;98958.16;;;13.19;62.89
47430;BME280;33181;49.246;7.372;2023-06-05T03:16:37;98954.69;;;13.18;62.66
47430;BME280;33181;49.246;7.372;2023-06-05T03:19:08;98955.78;;;13.16;62.83
47430;BME280;33181;49.246;7.372;2023-06-05T03:21:36;98957.41;;;13.07;63.39
47430;BME280;33181;49.246;7.372;2023-06-05T03:24:08;98955.75;;;13.06;63.20
47430;BME280;33181;49.246;7.372;2023-06-05T03:26:34;98952.28;;;13.06;62.97
47430;BME280;33181;49.246;7.372;2023-06-05T03:29:01;98957.94;;;13.01;63.05
47430;BME280;33181;49.246;7.372;2023-06-05T03:31:26;98954.75;;;12.97;63.28
47430;BME280;33181;49.246;7.372;2023-06-05T03:33:52;98961.09;;;12.85;63.51
47430;BME280;33181;49.246;7.372;2023-06-05T03:36:18;98959.56;;;12.83;63.69
47430;BME280;33181;49.246;7.372;2023-06-05T03:38:45;98958.59;;;12.84;63.84
47430;BME280;33181;49.246;7.372;2023-06-05T03:41:11;98961.66;;;12.89;63.88
47430;BME280;33181;49.246;7.372;2023-06-05T03:43:38;98968.34;;;12.93;63.89
47430;BME280;33181;49.246;7.372;2023-06-05T03:46:03;98958.94;;;13.00;64.00
47430;BME280;33181;49.246;7.372;2023-06-05T03:48:30;98958.16;;;13.19;63.65
47430;BME280;33181;49.246;7.372;2023-06-05T03:51:46;98963.25;;;13.61;62.72
47430;BME280;33181;49.246;7.372;2023-06-05T03:54:13;98955.88;;;13.84;61.36
47430;BME280;33181;49.246;7.372;2023-06-05T03:56:43;98954.47;;;14.09;60.14
47430;BME280;33181;49.246;7.372;2023-06-05T03:59:16;98948.31;;;14.37;59.13
47430;BME280;33181;49.246;7.372;2023-06-05T04:01:46;98953.09;;;14.71;58.13
47430;BME280;33181;49.246;7.372;2023-06-05T04:04:14;98953.06;;;15.09;57.03
47430;BME280;33181;49.246;7.372;2023-06-05T04:06:40;98955.81;;;15.62;56.09
47430;BME280;33181;49.246;7.372;2023-06-05T04:09:07;98951.59;;;16.05;54.86
47430;BME280;33181;49.246;7.372;2023-06-05T04:11:43;98955.25;;;16.56;53.64
47430;BME280;33181;49.246;7.372;2023-06-05T04:14:10;98951.19;;;17.04;52.62
47430;BME280;33181;49.246;7.372;2023-06-05T04:16:37;98951.00;;;17.48;51.13
47430;BME280;33181;49.246;7.372;2023-06-05T04:19:11;98950.06;;;17.90;50.02
47430;BME280;33181;49.246;7.372;2023-06-05T04:21:38;98952.41;;;18.26;48.75
47430;BME280;33181;49.246;7.372;2023-06-05T04:24:05;98948.47;;;18.69;48.10
47430;BME280;33181;49.246;7.372;2023-06-05T04:26:37;98951.72;;;19.04;46.94
47430;BME280;33181;49.246;7.372;2023-06-05T04:29:04;98956.34;;;19.41;45.82
47430;BME280;33181;49.246;7.372;2023-06-05T04:31:42;98950.78;;;19.82;45.19
47430;BME280;33181;49.246;7.372;2023-06-05T04:34:08;98949.94;;;20.05;44.61
47430;BME280;33181;49.246;7.372;2023-06-05T04:36:35;98950.00;;;20.34;43.94
47430;BME280;33181;49.246;7.372;2023-06-05T04:39:02;98959.03;;;20.33;43.76
47430;BME280;33181;49.246;7.372;2023-06-05T04:41:31;98953.09;;;20.23;43.77
47430;BME280;33181;49.246;7.372;2023-06-05T04:43:58;98953.03;;;19.94;44.37
47430;BME280;33181;49.246;7.372;2023-06-05T04:46:26;98949.53;;;19.70;44.32
47430;BME280;33181;49.246;7.372;2023-06-05T04:48:53;98954.94;;;19.54;44.85
47430;BME280;33181;49.246;7.372;2023-06-05T04:51:21;98947.59;;;19.33;44.96
47430;BME280;33181;49.246;7.372;2023-06-05T04:53:48;98953.31;;;19.13;44.86
47430;BME280;33181;49.246;7.372;2023-06-05T04:56:19;98941.84;;;19.13;45.14
47430;BME280;33181;49.246;7.372;2023-06-05T04:58:47;98944.50;;;19.13;45.43
47430;BME280;33181;49.246;7.372;2023-06-05T05:01:13;98945.84;;;19.17;45.49
47430;BME280;33181;49.246;7.372;2023-06-05T05:03:39;98940.53;;;19.17;45.63
47430;BME280;33181;49.246;7.372;2023-06-05T05:06:08;98942.84;;;19.20;45.45
47430;BME280;33181;49.246;7.372;2023-06-05T05:08:37;98938.94;;;19.31;45.69
47430;BME280;33181;49.246;7.372;2023-06-05T05:11:04;98942.75;;;19.36;44.94
47430;BME280;33181;49.246;7.372;2023-06-05T05:13:33;98943.56;;;19.37;44.25
47430;BME280;33181;49.246;7.372;2023-06-05T05:15:59;98946.47;;;19.50;44.53
47430;BME280;33181;49.246;7.372;2023-06-05T05:18:25;98941.25;;;19.65;44.00
47430;BME280;33181;49.246;7.372;2023-06-05T05:20:51;98941.72;;;19.68;43.20
47430;BME280;33181;49.246;7.372;2023-06-05T05:23:17;98938.81;;;19.78;44.16
47430;BME280;33181;49.246;7.372;2023-06-05T05:25:43;98941.84;;;19.75;43.50
47430;BME280;33181;49.246;7.372;2023-06-05T05:28:09;98931.75;;;19.85;43.50
47430;BME280;33181;49.246;7.372;2023-06-05T05:30:35;98940.28;;;20.04;43.24
47430;BME280;33181;49.246;7.372;2023-06-05T05:33:01;98947.97;;;20.22;43.36
47430;BME280;33181;49.246;7.372;2023-06-05T05:35:27;98949.44;;;20.24;43.94
47430;BME280;33181;49.246;7.372;2023-06-05T05:37:53;98945.03;;;20.31;43.88
47430;BME280;33181;49.246;7.372;2023-06-05T05:40:19;98940.16;;;20.35;44.06
47430;BME280;33181;49.246;7.372;2023-06-05T05:46:26;98945.91;;;20.62;43.97
47430;BME280;33181;49.246;7.372;2023-06-05T05:48:53;98943.53;;;20.81;43.51
47430;BME280;33181;49.246;7.372;2023-06-05T05:51:20;98946.47;;;21.01;43.11
47430;BME280;33181;49.246;7.372;2023-06-05T05:57:27;98946.09;;;21.56;42.32
47430;BME280;33181;49.246;7.372;2023-06-05T05:59:55;98950.47;;;21.42;39.41
47430;BME280;33181;49.246;7.372;2023-06-05T06:02:21;98958.78;;;21.32;39.31
47430;BME280;33181;49.246;7.372;2023-06-05T06:08:26;98948.56;;;21.21;38.87
47430;BME280;33181;49.246;7.372;2023-06-05T06:10:53;98956.59;;;21.36;39.86
47430;BME280;33181;49.246;7.372;2023-06-05T06:13:19;98947.06;;;21.48;38.59
47430;BME280;33181;49.246;7.372;2023-06-05T06:15:45;98963.09;;;21.33;38.62
47430;BME280;33181;49.246;7.372;2023-06-05T06:18:12;98952.84;;;21.51;38.67
47430;BME280;33181;49.246;7.372;2023-06-05T06:20:38;98952.22;;;21.71;37.97
47430;BME280;33181;49.246;7.372;2023-06-05T06:23:04;98946.16;;;21.62;37.91
47430;BME280;33181;49.246;7.372;2023-06-05T06:25:31;98945.41;;;21.68;38.50
47430;BME280;33181;49.246;7.372;2023-06-05T06:28:02;98952.31;;;21.26;38.63
47430;BME280;33181;49.246;7.372;2023-06-05T06:30:28;98951.81;;;21.16;38.53
47430;BME280;33181;49.246;7.372;2023-06-05T06:32:56;98954.47;;;21.01;38.00
47430;BME280;33181;49.246;7.372;2023-06-05T06:35:26;98954.84;;;21.13;38.64
47430;BME280;33181;49.246;7.372;2023-06-05T06:37:57;98953.94;;;20.91;37.57
47430;BME280;33181;49.246;7.372;2023-06-05T06:40:24;98965.66;;;20.75;37.92
47430;BME280;33181;49.246;7.372;2023-06-05T06:42:50;98957.53;;;20.54;38.03
47430;BME280;33181;49.246;7.372;2023-06-05T06:45:19;98959.03;;;20.48;38.02
47430;BME280;33181;49.246;7.372;2023-06-05T06:47:45;98960.50;;;20.59;38.25
47430;BME280;33181;49.246;7.372;2023-06-05T06:50:13;98969.84;;;20.55;38.57
47430;BME280;33181;49.246;7.372;2023-06-05T06:52:40;98962.44;;;20.65;38.35
47430;BME280;33181;49.246;7.372;2023-06-05T06:55:07;98960.09;;;20.77;38.07
47430;BME280;33181;49.246;7.372;2023-06-05T06:57:34;98961.59;;;20.79;37.64
47430;BME280;33181;49.246;7.372;2023-06-05T07:00:00;98964.72;;;20.68;38.50
47430;BME280;33181;49.246;7.372;2023-06-05T07:02:26;98960.47;;;20.89;37.96
47430;BME280;33181;49.246;7.372;2023-06-05T07:04:53;98958.91;;;21.09;37.07
47430;BME280;33181;49.246;7.372;2023-06-05T07:07:20;98960.94;;;20.77;37.76
47430;BME280;33181;49.246;7.372;2023-06-05T07:09:50;98963.81;;;20.91;38.13
47430;BME280;33181;49.246;7.372;2023-06-05T07:12:17;98958.25;;;21.07;38.60
47430;BME280;33181;49.246;7.372;2023-06-05T07:14:45;98959.53;;;21.41;37.20
47430;BME280;33181;49.246;7.372;2023-06-05T07:17:11;98954.47;;;21.67;38.00
47430;BME280;33181;49.246;7.372;2023-06-05T07:19:37;98953.38;;;21.62;36.42
47430;BME280;33181;49.246;7.372;2023-06-05T07:22:05;98956.53;;;20.85;37.73
47430;BME280;33181;49.246;7.372;2023-06-05T07:24:33;98950.03;;;21.09;37.24
47430;BME280;33181;49.246;7.372;2023-06-05T07:27:03;98953.28;;;21.19;36.96
47430;BME280;33181;49.246;7.372;2023-06-05T07:29:30;98950.66;;;21.40;37.13
47430;BME280;33181;49.246;7.372;2023-06-05T07:31:57;98948.59;;;21.57;36.99
47430;BME280;33181;49.246;7.372;2023-06-05T07:34:25;98947.69;;;21.50;37.49
47430;BME280;33181;49.246;7.372;2023-06-05T07:36:52;98956.22;;;21.39;36.70
47430;BME280;33181;49.246;7.372;2023-06-05T07:39:23;98955.03;;;21.63;37.08
47430;BME280;33181;49.246;7.372;2023-06-05T07:41:49;98947.22;;;21.83;36.84
47430;BME280;33181;49.246;7.372;2023-06-05T07:44:18;98946.69;;;21.94;36.97
47430;BME280;33181;49.246;7.372;2023-06-05T07:46:47;98936.28;;;22.06;36.42
47430;BME280;33181;49.246;7.372;2023-06-05T07:49:13;98948.81;;;22.20;36.17
47430;BME280;33181;49.246;7.372;2023-06-05T07:51:41;98944.31;;;22.06;36.27
47430;BME280;33181;49.246;7.372;2023-06-05T07:54:11;98948.41;;;22.02;36.44
47430;BME280;33181;49.246;7.372;2023-06-05T07:56:37;98949.22;;;21.81;36.21
47430;BME280;33181;49.246;7.372;2023-06-05T07:59:04;98952.34;;;22.06;35.96
47430;BME280;33181;49.246;7.372;2023-06-05T08:01:34;98951.41;;;22.13;35.67
47430;BME280;33181;49.246;7.372;2023-06-05T08:04:05;98952.13;;;22.29;36.02
47430;BME280;33181;49.246;7.372;2023-06-05T08:06:31;98958.81;;;22.39;35.93
47430;BME280;33181;49.246;7.372;2023-06-05T08:09:01;98950.63;;;22.48;35.63
47430;BME280;33181;49.246;7.372;2023-06-05T08:11:28;98952.00;;;22.65;35.41
47430;BME280;33181;49.246;7.372;2023-06-05T08:13:54;98953.63;;;22.94;35.75
47430;BME280;33181;49.246;7.372;2023-06-05T08:16:21;98951.31;;;22.91;35.16
47430;BME280;33181;49.246;7.372;2023-06-05T08:18:47;98941.78;;;23.17;35.25
47430;BME280;33181;49.246;7.372;2023-06-05T08:21:14;98941.78;;;23.17;35.75
47430;BME280;33181;49.246;7.372;2023-06-05T08:23:39;98939.94;;;23.17;35.17
47430;BME280;33181;49.246;7.372;2023-06-05T08:26:06;98940.16;;;23.22;35.52
47430;BME280;33181;49.246;7.372;2023-06-05T08:28:40;98936.31;;;23.51;35.65
47430;BME280;33181;49.246;7.372;2023-06-05T08:31:09;98936.06;;;23.33;35.10
47430;BME280;33181;49.246;7.372;2023-06-05T08:33:37;98932.81;;;23.64;34.95
47430;BME280;33181;49.246;7.372;2023-06-05T08:36:04;98933.97;;;23.90;35.33
47430;BME280;33181;49.246;7.372;2023-06-05T08:38:33;98934.31;;;23.80;34.78
47430;BME280;33181;49.246;7.372;2023-06-05T08:41:04;98930.22;;;23.97;35.68
47430;BME280;33181;49.246;7.372;2023-06-05T08:43:31;98939.75;;;24.53;34.96
47430;BME280;33181;49.246;7.372;2023-06-05T08:45:57;98925.44;;;24.72;34.02
47430;BME280;33181;49.246;7.372;2023-06-05T08:48:28;98931.66;;;24.66;34.49
47430;BME280;33181;49.246;7.372;2023-06-05T08:50:58;98931.34;;;24.94;34.85
47430;BME280;33181;49.246;7.372;2023-06-05T08:53:31;98928.88;;;25.45;34.38
47430;BME280;33181;49.246;7.372;2023-06-05T08:55:59;98927.81;;;25.84;34.00
47430;BME280;33181;49.246;7.372;2023-06-05T08:58:27;98930.25;;;25.22;33.73
47430;BME280;33181;49.246;7.372;2023-06-05T09:00:53;98933.56;;;25.11;34.45
47430;BME280;33181;49.246;7.372;2023-06-05T09:03:19;98929.81;;;25.18;34.29
47430;BME280;33181;49.246;7.372;2023-06-05T09:05:47;98922.59;;;25.57;33.81
47430;BME280;33181;49.246;7.372;2023-06-05T09:08:15;98917.63;;;26.18;33.43
47430;BME280;33181;49.246;7.372;2023-06-05T09:10:42;98918.38;;;26.50;33.18
47430;BME280;33181;49.246;7.372;2023-06-05T09:13:08;98905.91;;;26.55;32.56
47430;BME280;33181;49.246;7.372;2023-06-05T09:15:38;98925.13;;;26.59;33.19
47430;BME280;33181;49.246;7.372;2023-06-05T09:18:10;98921.06;;;26.00;32.79
47430;BME280;33181;49.246;7.372;2023-06-05T09:20:40;98921.16;;;25.55;34.22
47430;BME280;33181;49.246;7.372;2023-06-05T09:23:26;98920.69;;;25.64;34.48
47430;BME280;33181;49.246;7.372;2023-06-05T09:25:57;98914.81;;;25.74;33.42
47430;BME280;33181;49.246;7.372;2023-06-05T09:28:24;98911.69;;;26.09;34.24
47430;BME280;33181;49.246;7.372;2023-06-05T09:30:57;98913.81;;;26.25;32.92
47430;BME280;33181;49.246;7.372;2023-06-05T09:33:25;98915.19;;;26.34;32.77
47430;BME280;33181;49.246;7.372;2023-06-05T09:36:12;98911.78;;;26.46;32.70
47430;BME280;33181;49.246;7.372;2023-06-05T09:38:41;98902.06;;;26.63;33.04
47430;BME280;33181;49.246;7.372;2023-06-05T09:41:11;98906.34;;;26.71;32.37
47430;BME280;33181;49.246;7.372;2023-06-05T09:43:40;98903.50;;;26.84;32.70
47430;BME280;33181;49.246;7.372;2023-06-05T09:46:13;98902.94;;;27.12;31.39
47430;BME280;33181;49.246;7.372;2023-06-05T09:48:40;98893.53;;;27.21;32.45
47430;BME280;33181;49.246;7.372;2023-06-05T09:51:12;98902.94;;;27.31;31.60
47430;BME280;33181;49.246;7.372;2023-06-05T09:53:46;98894.78;;;26.45;31.87
47430;BME280;33181;49.246;7.372;2023-06-05T09:56:15;98903.03;;;26.25;32.56
47430;BME280;33181;49.246;7.372;2023-06-05T09:58:50;98900.75;;;25.72;32.61
47430;BME280;33181;49.246;7.372;2023-06-05T10:01:23;98899.69;;;25.80;34.35
47430;BME280;33181;49.246;7.372;2023-06-05T10:04:05;98891.41;;;26.06;32.60
47430;BME280;33181;49.246;7.372;2023-06-05T10:06:33;98895.56;;;26.27;32.35
47430;BME280;33181;49.246;7.372;2023-06-05T10:09:00;98898.72;;;26.24;33.08
47430;BME280;33181;49.246;7.372;2023-06-05T10:11:27;98892.56;;;26.35;33.02
47430;BME280;33181;49.246;7.372;2023-06-05T10:13:54;98888.06;;;26.54;32.02
47430;BME280;33181;49.246;7.372;2023-06-05T10:16:21;98890.91;;;26.16;33.02
47430;BME280;33181;49.246;7.372;2023-06-05T10:18:48;98885.09;;;26.38;33.40
47430;BME280;33181;49.246;7.372;2023-06-05T10:21:16;98886.34;;;26.60;31.32
47430;BME280;33181;49.246;7.372;2023-06-05T10:23:48;98882.22;;;26.39;32.53
47430;BME280;33181;49.246;7.372;2023-06-05T10:38:18;98874.88;;;28.15;30.20
47430;BME280;33181;49.246;7.372;2023-06-05T10:40:54;98865.19;;;28.78;29.52
47430;BME280;33181;49.246;7.372;2023-06-05T10:43:28;98869.31;;;29.09;29.25
47430;BME280;33181;49.246;7.372;2023-06-05T10:45:57;98862.41;;;28.90;29.23
47430;BME280;33181;49.246;7.372;2023-06-05T10:51:48;98852.19;;;29.04;29.53
47430;BME280;33181;49.246;7.372;2023-06-05T10:59:26;98859.03;;;27.54;29.76
47430;BME280;33181;49.246;7.372;2023-06-05T11:07:29;98858.06;;;28.13;28.89
47430;BME280;33181;49.246;7.372;2023-06-05T11:15:14;98853.16;;;28.86;28.12
47430;BME280;33181;49.246;7.372;2023-06-05T11:17:45;98853.28;;;28.79;28.54
47430;BME280;33181;49.246;7.372;2023-06-05T11:25:27;98852.44;;;28.03;28.77
47430;BME280;33181;49.246;7.372;2023-06-05T11:28:01;98845.00;;;28.34;28.54
47430;BME280;33181;49.246;7.372;2023-06-05T11:30:42;98844.88;;;28.64;28.21
47430;BME280;33181;49.246;7.372;2023-06-05T11:33:11;98846.16;;;28.61;28.68
47430;BME280;33181;49.246;7.372;2023-06-05T11:35:43;98842.91;;;27.89;29.71
47430;BME280;33181;49.246;7.372;2023-06-05T11:38:20;98833.75;;;28.25;28.70
47430;BME280;33181;49.246;7.372;2023-06-05T11:40:50;98839.38;;;28.35;28.72
47430;BME280;33181;49.246;7.372;2023-06-05T11:43:17;98845.63;;;28.12;29.30
47430;BME280;33181;49.246;7.372;2023-06-05T11:45:56;98841.50;;;28.10;29.13
47430;BME280;33181;49.246;7.372;2023-06-05T11:48:23;98839.97;;;28.02;28.69
47430;BME280;33181;49.246;7.372;2023-06-05T11:50:58;98847.47;;;28.24;29.66
47430;BME280;33181;49.246;7.372;2023-06-05T11:53:28;98841.47;;;28.57;28.63
47430;BME280;33181;49.246;7.372;2023-06-05T11:55:57;98833.34;;;27.63;28.97
47430;BME280;33181;49.246;7.372;2023-06-05T11:58:34;98838.09;;;27.49;29.93
47430;BME280;33181;49.246;7.372;2023-06-05T12:01:17;98845.72;;;27.40;29.37
47430;BME280;33181;49.246;7.372;2023-06-05T12:03:46;98839.56;;;27.63;30.31
47430;BME280;33181;49.246;7.372;2023-06-05T12:06:13;98838.13;;;27.61;28.99
47430;BME280;33181;49.246;7.372;2023-06-05T12:08:40;98837.88;;;27.81;30.59
47430;BME280;33181;49.246;7.372;2023-06-05T12:11:26;98838.44;;;27.94;29.53
47430;BME280;33181;49.246;7.372;2023-06-05T12:13:54;98829.09;;;27.55;29.57
47430;BME280;33181;49.246;7.372;2023-06-05T12:16:36;98838.94;;;27.61;29.24
47430;BME280;33181;49.246;7.372;2023-06-05T12:19:17;98825.13;;;27.69;29.93
47430;BME280;33181;49.246;7.372;2023-06-05T12:21:48;98824.47;;;27.86;29.66
47430;BME280;33181;49.246;7.372;2023-06-05T12:24:24;98826.59;;;28.07;29.59
47430;BME280;33181;49.246;7.372;2023-06-05T12:26:57;98824.78;;;28.25;28.58
47430;BME280;33181;49.246;7.372;2023-06-05T12:29:30;98826.81;;;28.06;28.42
47430;BME280;33181;49.246;7.372;2023-06-05T12:31:59;98817.91;;;27.93;28.74
47430;BME280;33181;49.246;7.372;2023-06-05T12:34:46;98817.63;;;27.71;28.83
47430;BME280;33181;49.246;7.372;2023-06-05T12:37:30;98818.75;;;27.52;29.41
47430;BME280;33181;49.246;7.372;2023-06-05T12:40:04;98818.53;;;27.54;29.28
47430;BME280;33181;49.246;7.372;2023-06-05T12:42:37;98815.59;;;27.55;28.89
47430;BME280;33181;49.246;7.372;2023-06-05T12:45:04;98810.41;;;27.84;29.13
47430;BME280;33181;49.246;7.372;2023-06-05T12:47:30;98804.25;;;28.24;29.84
47430;BME280;33181;49.246;7.372;2023-06-05T12:49:56;98803.88;;;28.44;28.83
47430;BME280;33181;49.246;7.372;2023-06-05T12:52:25;98805.19;;;28.06;28.42
47430;BME280;33181;49.246;7.372;2023-06-05T12:54:53;98803.69;;;27.86;28.91
47430;BME280;33181;49.246;7.372;2023-06-05T12:57:19;98800.84;;;27.93;28.60
47430;BME280;33181;49.246;7.372;2023-06-05T12:59:51;98802.97;;;27.79;28.58
47430;BME280;33181;49.246;7.372;2023-06-05T13:02:17;98805.88;;;27.66;28.84
47430;BME280;33181;49.246;7.372;2023-06-05T13:04:43;98807.16;;;27.63;28.95
47430;BME280;33181;49.246;7.372;2023-06-05T13:07:09;98805.09;;;27.89;28.69
47430;BME280;33181;49.246;7.372;2023-06-05T13:09:38;98794.66;;;28.04;29.01
47430;BME280;33181;49.246;7.372;2023-06-05T13:12:05;98797.19;;;28.46;28.88
47430;BME280;33181;49.246;7.372;2023-06-05T13:14:31;98792.34;;;28.36;28.89
47430;BME280;33181;49.246;7.372;2023-06-05T13:16:58;98798.50;;;28.08;29.13
47430;BME280;33181;49.246;7.372;2023-06-05T13:19:24;98792.81;;;27.51;29.99
47430;BME280;33181;49.246;7.372;2023-06-05T13:21:51;98799.72;;;27.35;29.40
47430;BME280;33181;49.246;7.372;2023-06-05T13:24:18;98793.97;;;26.71;29.90
47430;BME280;33181;49.246;7.372;2023-06-05T13:26:44;98792.09;;;26.35;31.08
47430;BME280;33181;49.246;7.372;2023-06-05T13:29:10;98785.97;;;26.65;30.53
47430;BME280;33181;49.246;7.372;2023-06-05T13:31:37;98795.41;;;26.74;29.61
47430;BME280;33181;49.246;7.372;2023-06-05T13:34:03;98787.34;;;26.86;29.52
47430;BME280;33181;49.246;7.372;2023-06-05T13:36:29;98771.59;;;27.13;29.41
47430;BME280;33181;49.246;7.372;2023-06-05T13:38:56;98777.47;;;27.63;29.46
47430;BME280;33181;49.246;7.372;2023-06-05T13:41:22;98764.59;;;27.89;29.10
47430;BME280;33181;49.246;7.372;2023-06-05T13:43:48;98775.16;;;27.90;29.62
47430;BME280;33181;49.246;7.372;2023-06-05T13:46:14;98770.94;;;27.83;28.43
47430;BME280;33181;49.246;7.372;2023-06-05T13:48:40;98768.78;;;27.49;29.04
47430;BME280;33181;49.246;7.372;2023-06-05T13:51:05;98775.31;;;27.00;29.66
47430;BME280;33181;49.246;7.372;2023-06-05T13:53:32;98765.59;;;26.99;30.33
47430;BME280;33181;49.246;7.372;2023-06-05T13:56:06;98767.03;;;27.13;30.01
47430;BME280;33181;49.246;7.372;2023-06-05T13:58:32;98770.38;;;27.15;29.83
47430;BME280;33181;49.246;7.372;2023-06-05T14:01:00;98768.69;;;27.14;29.87
47430;BME280;33181;49.246;7.372;2023-06-05T14:03:26;98762.41;;;27.32;29.27
47430;BME280;33181;49.246;7.372;2023-06-05T14:05:52;98761.75;;;27.60;29.43
47430;BME280;33181;49.246;7.372;2023-06-05T14:08:18;98773.72;;;27.64;28.93
47430;BME280;33181;49.246;7.372;2023-06-05T14:10:44;98764.22;;;27.50;29.19
47430;BME280;33181;49.246;7.372;2023-06-05T14:13:11;98760.53;;;27.33;30.23